SCIP

Mataveri Airport

Isla De Pascua, Chile
METAR SCIP 190300Z VRB01KT 9999 FEW025 BKN040 19/15 Q1024 NOSIG
Observed Flight Rules
Oct-19 @ 03:00 UTC (11 minutes ago) Visual Flight Rules
Wind Visibility Clouds
Variable at 1 knots 10,000+ meters
  • Few at 2,500' AGL
  • Broken at 4,000' AGL
Temperatures Readings
Current 19°C / 66°F
Dewpoint 15°C / 59°F
Humidity 78%
Altimeter 30.24" Hg
Pressure 1024 hPa
Elevation 69
METAR SCIP 190300Z VRB01KT 9999 FEW025 BKN040 19/15 Q1024 NOSIG
Observed Flight Rules
Oct-19 @ 03:00 UTC
(11 minutes ago)
VFR
Wind Visibility
Variable at 1 knots 10,000+ meters
Clouds
  • Few at 2,500' AGL
  • Broken at 4,000' AGL
Temperature Dewpoint
19°C / 66°F 15°C / 59°F
Humidity Altimeter Pressure
78% 30.24" Hg 1024 hPa